Pagrindinis puslapis
METAR-TAF:

METAR-TAF

Oro uostai :

Porto Alegrė, Pietų Rio Grandė, Brazilija

platuma: 30-00S, ilguma: 051-11W, Aukštis: 3 m

Dabartinis oras

Ataskaita buvo paskelbta 10 minutes, ne 22:00 UTC
Vėjas 2 kt iš Pietų/Pietryčių
Temperatūra 16°C
Drėgmė 88%
Slėgis 1014 hPa
Matomumas 10 km arba daugiau
nėra debesų žemiau 1500 m ir nėra kamuolinių lietaus debesų

METAR: SBPA 302200Z 16002KT CAVOK 16/14 Q1014

Laikas: 19:10 (22:10 UTC)

Prognozė

Ataskaita buvo paskelbta 7 valandos ir 10 minutes, ne 15:00 UTC
Prognozė galioja nuo 30 metu 18 UTC su 31 metu 18 UTC
Vėjas 5 kt iš Rytų/Pietryčių
Matomumas 10 km arba daugiau
nėra debesų žemiau 1500 m ir nėra kamuolinių lietaus debesų
Tikimybė 40%
nuo 31 metu 06 UTC su 31 metu 10 UTC
Matomumas: 4000 m
Su prošvaistėmis ne aukštis 300 ft
rūkana
Tapsmas
nuo 31 metu 11 UTC su 31 metu 13 UTC
Matomumas 10 km arba daugiau
nėra debesų žemiau 1500 m ir nėra kamuolinių lietaus debesų

TAF: SBPA 301500Z 3018/3118 11005KT CAVOK TN08/3108Z TX24/3118Z PROB40 3106/3110 4000 BR BKN003 BECMG 3111/3113 CAVOK RMK PDG

Orai ataskaitas ir orų prognozės (METAR, TAF).

turimą stotys yra geltonos ir raudonos taškus žemėlapyje.

Perkelti pele per norėdami pamatyti stoties vardą.

Tada spustelėkite, norėdami matyti oro stebėjimo ir prognozės.

Norėdami pakeisti žemėlapį: spustelėkite ant žalios mygtukų su juodo kryžiaus žemyn,; žalią mygtuką su brūkšneliu, jei norite nutolinti; arba žalių rodyklių gretimoms žemėlapius.


METAR-TAF: